KCRW/CRW METAR and TAF weather

Enter ICAO airport designator
Station Type Date Time Source
KCRW METAR 2019/09/21 04:54 UTC NOAA

KCRW 210454Z 00000KT 10SM CLR 19/17 A3023 RMK AO2 SLP228 T01940167 403000150


Station Type Date Time Source
KCRW Decoded METAR 2019/09/21 04:54 UTC NOAA

YEAGER AIRPORT, WV, United States (KCRW) 38-22N 081-36W 309M
Sep 21, 2019 - 12:54 AM EDT / 2019.09.21 0454 UTC
Wind: Calm:0
Visibility: 10 mile(s):0
Sky conditions: clear
Temperature: 66.9 F (19.4 C)
Dew Point: 62.1 F (16.7 C)
Relative Humidity: 84%
Pressure (altimeter): 30.23 in. Hg (1023 hPa)
ob: KCRW 210454Z 00000KT 10SM CLR 19/17 A3023 RMK AO2 SLP228 T01940167 403000150
cycle: 5

Station Type Date Time Source
KCRW TAF 2019/09/21 03:48 UTC NOAA

TAF
AMD KCRW 210245Z 2103/2124 00000KT P6SM FEW060
FM210700 00000KT 6SM BR SCT040
FM211000 00000KT 4SM BR SCT001 BKN035
FM211300 24004KT P6SM BKN035
FM212200 27003KT P6SM SCT035 SCT120

Example: see airport list